sensor_id;sensor_type;location;lat;lon;timestamp;P1;durP1;ratioP1;P2;durP2;ratioP2
1106;SDS011;540;49.448;8.612;2023-08-30T00:01:55;3.60;;;2.90;;
1106;SDS011;540;49.448;8.612;2023-08-30T00:04:23;5.72;;;2.88;;
1106;SDS011;540;49.448;8.612;2023-08-30T00:06:50;4.35;;;3.28;;
1106;SDS011;540;49.448;8.612;2023-08-30T00:09:18;4.20;;;2.47;;
1106;SDS011;540;49.448;8.612;2023-08-30T00:11:46;3.25;;;2.70;;
1106;SDS011;540;49.448;8.612;2023-08-30T00:14:15;3.42;;;2.75;;
1106;SDS011;540;49.448;8.612;2023-08-30T00:16:43;3.92;;;3.05;;
1106;SDS011;540;49.448;8.612;2023-08-30T00:19:11;5.05;;;3.67;;
1106;SDS011;540;49.448;8.612;2023-08-30T00:21:39;5.18;;;3.10;;
1106;SDS011;540;49.448;8.612;2023-08-30T00:24:06;6.38;;;3.22;;
1106;SDS011;540;49.448;8.612;2023-08-30T00:26:34;7.65;;;3.17;;
1106;SDS011;540;49.448;8.612;2023-08-30T00:29:02;7.45;;;3.85;;
1106;SDS011;540;49.448;8.612;2023-08-30T00:31:31;3.75;;;3.33;;
1106;SDS011;540;49.448;8.612;2023-08-30T00:33:59;3.60;;;3.10;;
1106;SDS011;540;49.448;8.612;2023-08-30T00:36:27;4.55;;;3.35;;
1106;SDS011;540;49.448;8.612;2023-08-30T00:38:55;4.75;;;3.53;;
1106;SDS011;540;49.448;8.612;2023-08-30T00:41:22;4.85;;;3.83;;
1106;SDS011;540;49.448;8.612;2023-08-30T00:43:50;4.82;;;3.28;;
1106;SDS011;540;49.448;8.612;2023-08-30T00:46:18;4.75;;;3.60;;
1106;SDS011;540;49.448;8.612;2023-08-30T00:48:48;3.63;;;2.90;;
1106;SDS011;540;49.448;8.612;2023-08-30T00:51:15;6.80;;;3.42;;
1106;SDS011;540;49.448;8.612;2023-08-30T00:53:43;5.35;;;3.72;;
1106;SDS011;540;49.448;8.612;2023-08-30T00:56:12;4.95;;;3.15;;
1106;SDS011;540;49.448;8.612;2023-08-30T00:58:39;4.90;;;3.47;;
1106;SDS011;540;49.448;8.612;2023-08-30T01:01:07;6.45;;;3.45;;
1106;SDS011;540;49.448;8.612;2023-08-30T01:03:35;3.67;;;3.33;;
1106;SDS011;540;49.448;8.612;2023-08-30T01:06:05;6.43;;;3.58;;
1106;SDS011;540;49.448;8.612;2023-08-30T01:08:34;4.78;;;3.78;;
1106;SDS011;540;49.448;8.612;2023-08-30T01:11:05;5.30;;;3.95;;
1106;SDS011;540;49.448;8.612;2023-08-30T01:16:09;5.45;;;4.43;;
1106;SDS011;540;49.448;8.612;2023-08-30T01:18:38;4.45;;;3.70;;
1106;SDS011;540;49.448;8.612;2023-08-30T01:21:12;3.75;;;3.42;;
1106;SDS011;540;49.448;8.612;2023-08-30T01:23:52;6.07;;;3.80;;
1106;SDS011;540;49.448;8.612;2023-08-30T01:26:26;4.70;;;4.15;;
1106;SDS011;540;49.448;8.612;2023-08-30T01:29:07;4.32;;;3.92;;
1106;SDS011;540;49.448;8.612;2023-08-30T01:31:37;6.30;;;4.40;;
1106;SDS011;540;49.448;8.612;2023-08-30T01:34:07;6.50;;;4.82;;
1106;SDS011;540;49.448;8.612;2023-08-30T01:36:35;5.78;;;5.10;;
1106;SDS011;540;49.448;8.612;2023-08-30T01:39:04;5.93;;;5.00;;
1106;SDS011;540;49.448;8.612;2023-08-30T01:41:32;6.63;;;5.03;;
1106;SDS011;540;49.448;8.612;2023-08-30T01:44:03;5.95;;;4.65;;
1106;SDS011;540;49.448;8.612;2023-08-30T01:46:35;6.03;;;4.80;;
1106;SDS011;540;49.448;8.612;2023-08-30T01:49:04;6.30;;;4.78;;
1106;SDS011;540;49.448;8.612;2023-08-30T01:51:34;8.90;;;5.15;;
1106;SDS011;540;49.448;8.612;2023-08-30T01:54:02;6.15;;;4.72;;
1106;SDS011;540;49.448;8.612;2023-08-30T01:56:31;6.93;;;5.00;;
1106;SDS011;540;49.448;8.612;2023-08-30T01:59:00;8.95;;;5.57;;
1106;SDS011;540;49.448;8.612;2023-08-30T02:01:29;7.35;;;4.63;;
1106;SDS011;540;49.448;8.612;2023-08-30T02:03:56;6.30;;;4.57;;
1106;SDS011;540;49.448;8.612;2023-08-30T02:06:28;5.35;;;4.85;;
1106;SDS011;540;49.448;8.612;2023-08-30T02:09:01;5.97;;;5.22;;
1106;SDS011;540;49.448;8.612;2023-08-30T02:11:41;7.85;;;4.90;;
1106;SDS011;540;49.448;8.612;2023-08-30T02:14:11;7.65;;;5.93;;
1106;SDS011;540;49.448;8.612;2023-08-30T02:16:45;6.45;;;4.90;;
1106;SDS011;540;49.448;8.612;2023-08-30T02:19:14;5.88;;;5.18;;
1106;SDS011;540;49.448;8.612;2023-08-30T02:21:43;7.88;;;4.90;;
1106;SDS011;540;49.448;8.612;2023-08-30T02:24:11;6.78;;;5.50;;
1106;SDS011;540;49.448;8.612;2023-08-30T02:26:38;7.10;;;5.00;;
1106;SDS011;540;49.448;8.612;2023-08-30T02:29:06;6.78;;;5.35;;
1106;SDS011;540;49.448;8.612;2023-08-30T02:31:36;8.05;;;5.30;;
1106;SDS011;540;49.448;8.612;2023-08-30T02:34:05;6.22;;;5.50;;
1106;SDS011;540;49.448;8.612;2023-08-30T02:36:33;8.48;;;5.70;;
1106;SDS011;540;49.448;8.612;2023-08-30T02:39:14;8.40;;;5.72;;
1106;SDS011;540;49.448;8.612;2023-08-30T02:41:42;11.57;;;6.50;;
1106;SDS011;540;49.448;8.612;2023-08-30T02:44:10;7.57;;;5.80;;
1106;SDS011;540;49.448;8.612;2023-08-30T02:46:38;9.90;;;6.55;;
1106;SDS011;540;49.448;8.612;2023-08-30T02:49:09;9.43;;;6.22;;
1106;SDS011;540;49.448;8.612;2023-08-30T02:51:37;9.75;;;6.78;;
1106;SDS011;540;49.448;8.612;2023-08-30T02:54:05;10.93;;;6.80;;
1106;SDS011;540;49.448;8.612;2023-08-30T02:56:33;7.57;;;6.80;;
1106;SDS011;540;49.448;8.612;2023-08-30T02:59:01;8.15;;;6.47;;
1106;SDS011;540;49.448;8.612;2023-08-30T03:01:29;7.60;;;6.57;;
1106;SDS011;540;49.448;8.612;2023-08-30T03:03:57;8.82;;;7.05;;
1106;SDS011;540;49.448;8.612;2023-08-30T03:06:26;8.88;;;7.75;;
1106;SDS011;540;49.448;8.612;2023-08-30T03:08:54;9.73;;;6.63;;
1106;SDS011;540;49.448;8.612;2023-08-30T03:11:21;8.85;;;7.32;;
1106;SDS011;540;49.448;8.612;2023-08-30T03:13:49;10.65;;;7.57;;
1106;SDS011;540;49.448;8.612;2023-08-30T03:16:17;9.45;;;7.35;;
1106;SDS011;540;49.448;8.612;2023-08-30T03:18:45;9.07;;;7.30;;
1106;SDS011;540;49.448;8.612;2023-08-30T03:21:13;9.38;;;6.72;;
1106;SDS011;540;49.448;8.612;2023-08-30T03:23:43;7.55;;;6.70;;
1106;SDS011;540;49.448;8.612;2023-08-30T03:26:11;8.32;;;6.80;;
1106;SDS011;540;49.448;8.612;2023-08-30T03:28:40;14.25;;;7.93;;
1106;SDS011;540;49.448;8.612;2023-08-30T03:31:11;8.63;;;7.38;;
1106;SDS011;540;49.448;8.612;2023-08-30T03:33:40;11.25;;;8.10;;
1106;SDS011;540;49.448;8.612;2023-08-30T03:36:11;9.60;;;7.53;;
1106;SDS011;540;49.448;8.612;2023-08-30T03:38:39;11.25;;;7.18;;
1106;SDS011;540;49.448;8.612;2023-08-30T03:41:09;8.30;;;7.47;;
1106;SDS011;540;49.448;8.612;2023-08-30T03:43:38;8.50;;;7.32;;
1106;SDS011;540;49.448;8.612;2023-08-30T03:46:06;11.23;;;7.53;;
1106;SDS011;540;49.448;8.612;2023-08-30T03:48:35;9.43;;;7.75;;
1106;SDS011;540;49.448;8.612;2023-08-30T03:51:03;8.50;;;7.40;;
1106;SDS011;540;49.448;8.612;2023-08-30T03:53:31;9.50;;;7.35;;
1106;SDS011;540;49.448;8.612;2023-08-30T03:55:59;10.43;;;8.13;;
1106;SDS011;540;49.448;8.612;2023-08-30T03:58:28;10.43;;;8.48;;
1106;SDS011;540;49.448;8.612;2023-08-30T04:00:56;9.43;;;7.60;;
1106;SDS011;540;49.448;8.612;2023-08-30T04:03:24;10.65;;;7.25;;
1106;SDS011;540;49.448;8.612;2023-08-30T04:05:54;9.85;;;7.47;;
1106;SDS011;540;49.448;8.612;2023-08-30T04:08:22;8.27;;;7.28;;
1106;SDS011;540;49.448;8.612;2023-08-30T04:10:51;8.85;;;7.72;;
1106;SDS011;540;49.448;8.612;2023-08-30T04:13:20;9.45;;;7.38;;
1106;SDS011;540;49.448;8.612;2023-08-30T04:15:49;9.18;;;7.90;;
1106;SDS011;540;49.448;8.612;2023-08-30T04:18:18;10.98;;;7.72;;
1106;SDS011;540;49.448;8.612;2023-08-30T04:20:46;9.23;;;7.63;;
1106;SDS011;540;49.448;8.612;2023-08-30T04:23:14;10.73;;;8.77;;
1106;SDS011;540;49.448;8.612;2023-08-30T04:25:43;10.90;;;7.65;;
1106;SDS011;540;49.448;8.612;2023-08-30T04:28:12;10.45;;;7.70;;
1106;SDS011;540;49.448;8.612;2023-08-30T04:30:39;9.38;;;7.93;;
1106;SDS011;540;49.448;8.612;2023-08-30T04:33:09;12.68;;;8.75;;
1106;SDS011;540;49.448;8.612;2023-08-30T04:35:37;10.80;;;8.77;;
1106;SDS011;540;49.448;8.612;2023-08-30T04:38:05;9.98;;;8.93;;
1106;SDS011;540;49.448;8.612;2023-08-30T04:40:33;10.50;;;8.70;;
1106;SDS011;540;49.448;8.612;2023-08-30T04:43:01;10.82;;;8.80;;
1106;SDS011;540;49.448;8.612;2023-08-30T04:45:29;12.27;;;8.75;;
1106;SDS011;540;49.448;8.612;2023-08-30T04:47:57;12.98;;;9.32;;
1106;SDS011;540;49.448;8.612;2023-08-30T04:50:26;13.23;;;9.68;;
1106;SDS011;540;49.448;8.612;2023-08-30T04:52:54;11.55;;;10.00;;
1106;SDS011;540;49.448;8.612;2023-08-30T04:55:23;11.07;;;9.00;;
1106;SDS011;540;49.448;8.612;2023-08-30T04:57:51;13.27;;;9.48;;
1106;SDS011;540;49.448;8.612;2023-08-30T05:00:19;12.23;;;10.00;;
1106;SDS011;540;49.448;8.612;2023-08-30T05:02:47;9.85;;;8.35;;
1106;SDS011;540;49.448;8.612;2023-08-30T05:05:15;9.55;;;8.43;;
1106;SDS011;540;49.448;8.612;2023-08-30T05:07:44;11.23;;;8.93;;
1106;SDS011;540;49.448;8.612;2023-08-30T05:10:12;12.23;;;9.27;;
1106;SDS011;540;49.448;8.612;2023-08-30T05:12:40;12.63;;;9.23;;
1106;SDS011;540;49.448;8.612;2023-08-30T05:15:10;9.98;;;8.32;;
1106;SDS011;540;49.448;8.612;2023-08-30T05:17:38;11.02;;;8.10;;
1106;SDS011;540;49.448;8.612;2023-08-30T05:20:06;8.98;;;8.07;;
1106;SDS011;540;49.448;8.612;2023-08-30T05:22:35;10.10;;;7.85;;
1106;SDS011;540;49.448;8.612;2023-08-30T05:25:04;11.40;;;8.38;;
1106;SDS011;540;49.448;8.612;2023-08-30T05:27:32;9.07;;;7.68;;
1106;SDS011;540;49.448;8.612;2023-08-30T05:30:00;10.70;;;7.95;;
1106;SDS011;540;49.448;8.612;2023-08-30T05:32:29;9.95;;;8.18;;
1106;SDS011;540;49.448;8.612;2023-08-30T05:34:58;10.68;;;8.02;;
1106;SDS011;540;49.448;8.612;2023-08-30T05:37:26;8.50;;;7.60;;
1106;SDS011;540;49.448;8.612;2023-08-30T05:39:54;10.15;;;7.90;;
1106;SDS011;540;49.448;8.612;2023-08-30T05:42:23;9.35;;;7.60;;
1106;SDS011;540;49.448;8.612;2023-08-30T05:44:50;8.98;;;7.68;;
1106;SDS011;540;49.448;8.612;2023-08-30T05:47:17;9.13;;;7.22;;
1106;SDS011;540;49.448;8.612;2023-08-30T05:49:45;8.30;;;6.63;;
1106;SDS011;540;49.448;8.612;2023-08-30T05:52:14;7.80;;;6.70;;
1106;SDS011;540;49.448;8.612;2023-08-30T05:54:44;8.73;;;7.03;;
1106;SDS011;540;49.448;8.612;2023-08-30T05:57:12;8.98;;;6.90;;
1106;SDS011;540;49.448;8.612;2023-08-30T05:59:41;9.93;;;6.85;;
1106;SDS011;540;49.448;8.612;2023-08-30T06:02:09;7.45;;;6.20;;
1106;SDS011;540;49.448;8.612;2023-08-30T06:04:37;9.63;;;6.47;;
1106;SDS011;540;49.448;8.612;2023-08-30T06:07:04;8.25;;;6.63;;
1106;SDS011;540;49.448;8.612;2023-08-30T06:09:32;9.80;;;6.47;;
1106;SDS011;540;49.448;8.612;2023-08-30T06:12:00;8.30;;;6.45;;
1106;SDS011;540;49.448;8.612;2023-08-30T06:14:28;9.27;;;6.00;;
1106;SDS011;540;49.448;8.612;2023-08-30T06:16:57;6.53;;;5.68;;
1106;SDS011;540;49.448;8.612;2023-08-30T06:19:25;8.13;;;5.90;;
1106;SDS011;540;49.448;8.612;2023-08-30T06:21:53;7.82;;;5.55;;
1106;SDS011;540;49.448;8.612;2023-08-30T06:24:20;7.03;;;5.75;;
1106;SDS011;540;49.448;8.612;2023-08-30T06:26:49;8.60;;;6.03;;
1106;SDS011;540;49.448;8.612;2023-08-30T06:29:16;7.55;;;6.60;;
1106;SDS011;540;49.448;8.612;2023-08-30T06:31:44;8.55;;;6.03;;
1106;SDS011;540;49.448;8.612;2023-08-30T06:34:14;8.88;;;6.57;;
1106;SDS011;540;49.448;8.612;2023-08-30T06:36:42;7.10;;;5.50;;
1106;SDS011;540;49.448;8.612;2023-08-30T06:39:10;7.85;;;5.93;;
1106;SDS011;540;49.448;8.612;2023-08-30T06:41:38;8.13;;;5.72;;
1106;SDS011;540;49.448;8.612;2023-08-30T06:44:06;7.15;;;6.00;;
1106;SDS011;540;49.448;8.612;2023-08-30T06:46:34;7.25;;;5.35;;
1106;SDS011;540;49.448;8.612;2023-08-30T06:49:01;7.95;;;6.45;;
1106;SDS011;540;49.448;8.612;2023-08-30T06:51:31;11.50;;;7.97;;
1106;SDS011;540;49.448;8.612;2023-08-30T06:53:59;7.32;;;5.75;;
1106;SDS011;540;49.448;8.612;2023-08-30T06:56:26;6.50;;;5.18;;
1106;SDS011;540;49.448;8.612;2023-08-30T06:58:54;7.43;;;6.28;;
1106;SDS011;540;49.448;8.612;2023-08-30T07:01:22;7.22;;;6.10;;
1106;SDS011;540;49.448;8.612;2023-08-30T07:03:50;9.55;;;6.40;;
1106;SDS011;540;49.448;8.612;2023-08-30T07:06:18;9.60;;;5.47;;
1106;SDS011;540;49.448;8.612;2023-08-30T07:08:47;8.10;;;5.00;;
1106;SDS011;540;49.448;8.612;2023-08-30T07:11:15;10.68;;;5.65;;
1106;SDS011;540;49.448;8.612;2023-08-30T07:13:58;6.53;;;5.38;;
1106;SDS011;540;49.448;8.612;2023-08-30T07:16:26;6.00;;;5.40;;
1106;SDS011;540;49.448;8.612;2023-08-30T07:18:54;6.32;;;5.57;;
1106;SDS011;540;49.448;8.612;2023-08-30T07:21:22;6.43;;;4.88;;
1106;SDS011;540;49.448;8.612;2023-08-30T07:23:51;9.75;;;5.25;;
1106;SDS011;540;49.448;8.612;2023-08-30T07:26:19;7.28;;;6.30;;
1106;SDS011;540;49.448;8.612;2023-08-30T07:28:47;9.75;;;6.47;;
1106;SDS011;540;49.448;8.612;2023-08-30T07:31:15;7.25;;;5.40;;
1106;SDS011;540;49.448;8.612;2023-08-30T07:33:44;7.13;;;5.55;;
1106;SDS011;540;49.448;8.612;2023-08-30T07:36:12;6.82;;;5.25;;
1106;SDS011;540;49.448;8.612;2023-08-30T07:38:40;6.63;;;5.00;;
1106;SDS011;540;49.448;8.612;2023-08-30T07:41:09;7.07;;;4.72;;
1106;SDS011;540;49.448;8.612;2023-08-30T07:43:38;5.80;;;5.00;;
1106;SDS011;540;49.448;8.612;2023-08-30T07:46:06;6.28;;;5.00;;
1106;SDS011;540;49.448;8.612;2023-08-30T07:48:34;5.25;;;4.30;;
1106;SDS011;540;49.448;8.612;2023-08-30T07:51:02;7.05;;;4.50;;
1106;SDS011;540;49.448;8.612;2023-08-30T07:53:30;7.60;;;4.88;;
1106;SDS011;540;49.448;8.612;2023-08-30T07:55:58;4.78;;;4.28;;
1106;SDS011;540;49.448;8.612;2023-08-30T07:58:27;7.47;;;5.20;;
1106;SDS011;540;49.448;8.612;2023-08-30T08:00:55;4.80;;;4.20;;
1106;SDS011;540;49.448;8.612;2023-08-30T08:03:24;6.53;;;5.22;;
1106;SDS011;540;49.448;8.612;2023-08-30T08:05:54;6.85;;;5.20;;
1106;SDS011;540;49.448;8.612;2023-08-30T08:08:23;10.90;;;4.82;;
1106;SDS011;540;49.448;8.612;2023-08-30T08:10:52;5.88;;;5.10;;
1106;SDS011;540;49.448;8.612;2023-08-30T08:13:21;6.88;;;5.70;;
1106;SDS011;540;49.448;8.612;2023-08-30T08:15:52;7.13;;;5.63;;
1106;SDS011;540;49.448;8.612;2023-08-30T08:18:24;6.60;;;4.82;;
1106;SDS011;540;49.448;8.612;2023-08-30T08:20:53;9.82;;;6.03;;
1106;SDS011;540;49.448;8.612;2023-08-30T08:23:22;8.50;;;5.15;;
1106;SDS011;540;49.448;8.612;2023-08-30T08:25:56;6.60;;;5.20;;
1106;SDS011;540;49.448;8.612;2023-08-30T08:28:25;7.13;;;4.70;;
1106;SDS011;540;49.448;8.612;2023-08-30T08:30:56;5.32;;;4.82;;
1106;SDS011;540;49.448;8.612;2023-08-30T08:33:25;6.32;;;4.65;;
1106;SDS011;540;49.448;8.612;2023-08-30T08:35:53;4.93;;;4.43;;
1106;SDS011;540;49.448;8.612;2023-08-30T08:38:21;5.68;;;4.90;;
1106;SDS011;540;49.448;8.612;2023-08-30T08:40:50;7.13;;;5.10;;
1106;SDS011;540;49.448;8.612;2023-08-30T08:43:20;5.45;;;4.90;;
1106;SDS011;540;49.448;8.612;2023-08-30T08:45:48;6.22;;;4.47;;
1106;SDS011;540;49.448;8.612;2023-08-30T08:48:18;5.80;;;5.22;;
1106;SDS011;540;49.448;8.612;2023-08-30T08:50:46;6.60;;;4.68;;
1106;SDS011;540;49.448;8.612;2023-08-30T08:53:16;5.97;;;5.10;;
1106;SDS011;540;49.448;8.612;2023-08-30T08:55:44;6.88;;;5.20;;
1106;SDS011;540;49.448;8.612;2023-08-30T08:58:13;7.53;;;5.53;;
1106;SDS011;540;49.448;8.612;2023-08-30T09:00:42;6.22;;;5.00;;
1106;SDS011;540;49.448;8.612;2023-08-30T09:03:10;5.47;;;4.75;;
1106;SDS011;540;49.448;8.612;2023-08-30T09:05:42;6.10;;;5.10;;
1106;SDS011;540;49.448;8.612;2023-08-30T09:08:12;5.35;;;4.78;;
1106;SDS011;540;49.448;8.612;2023-08-30T09:10:42;6.63;;;3.95;;
1106;SDS011;540;49.448;8.612;2023-08-30T09:13:11;5.35;;;4.38;;
1106;SDS011;540;49.448;8.612;2023-08-30T09:15:39;4.90;;;4.40;;
1106;SDS011;540;49.448;8.612;2023-08-30T09:18:14;4.18;;;3.55;;
1106;SDS011;540;49.448;8.612;2023-08-30T09:20:43;4.93;;;4.03;;
1106;SDS011;540;49.448;8.612;2023-08-30T09:23:17;4.68;;;3.45;;
1106;SDS011;540;49.448;8.612;2023-08-30T09:25:46;5.30;;;3.80;;
1106;SDS011;540;49.448;8.612;2023-08-30T09:28:14;5.85;;;3.80;;
1106;SDS011;540;49.448;8.612;2023-08-30T09:30:42;5.95;;;4.35;;
1106;SDS011;540;49.448;8.612;2023-08-30T09:33:19;5.25;;;3.70;;
1106;SDS011;540;49.448;8.612;2023-08-30T09:35:49;4.35;;;3.22;;
1106;SDS011;540;49.448;8.612;2023-08-30T09:38:17;4.40;;;3.60;;
1106;SDS011;540;49.448;8.612;2023-08-30T09:40:45;3.33;;;3.03;;
1106;SDS011;540;49.448;8.612;2023-08-30T09:43:13;3.58;;;2.95;;
1106;SDS011;540;49.448;8.612;2023-08-30T09:45:47;3.03;;;2.65;;
1106;SDS011;540;49.448;8.612;2023-08-30T09:48:16;5.15;;;3.30;;
1106;SDS011;540;49.448;8.612;2023-08-30T09:50:47;3.15;;;2.40;;
1106;SDS011;540;49.448;8.612;2023-08-30T09:53:21;4.50;;;2.75;;
1106;SDS011;540;49.448;8.612;2023-08-30T09:55:52;3.67;;;2.80;;
1106;SDS011;540;49.448;8.612;2023-08-30T09:58:21;2.78;;;2.55;;
1106;SDS011;540;49.448;8.612;2023-08-30T10:00:49;2.40;;;2.20;;
1106;SDS011;540;49.448;8.612;2023-08-30T10:03:18;4.30;;;2.70;;
1106;SDS011;540;49.448;8.612;2023-08-30T10:05:58;3.30;;;2.45;;
1106;SDS011;540;49.448;8.612;2023-08-30T10:08:29;2.72;;;2.08;;
1106;SDS011;540;49.448;8.612;2023-08-30T10:10:59;3.45;;;2.00;;
1106;SDS011;540;49.448;8.612;2023-08-30T10:13:29;3.42;;;2.10;;
1106;SDS011;540;49.448;8.612;2023-08-30T10:15:59;3.90;;;2.28;;
1106;SDS011;540;49.448;8.612;2023-08-30T10:18:32;2.08;;;1.88;;
1106;SDS011;540;49.448;8.612;2023-08-30T10:21:06;2.90;;;2.50;;
1106;SDS011;540;49.448;8.612;2023-08-30T10:23:39;2.60;;;2.03;;
1106;SDS011;540;49.448;8.612;2023-08-30T10:26:07;3.88;;;2.10;;
1106;SDS011;540;49.448;8.612;2023-08-30T10:28:35;3.10;;;2.00;;
1106;SDS011;540;49.448;8.612;2023-08-30T10:31:05;2.33;;;1.77;;
1106;SDS011;540;49.448;8.612;2023-08-30T10:33:33;4.80;;;2.03;;
1106;SDS011;540;49.448;8.612;2023-08-30T10:36:21;2.58;;;1.67;;
1106;SDS011;540;49.448;8.612;2023-08-30T10:38:50;3.65;;;2.63;;
1106;SDS011;540;49.448;8.612;2023-08-30T10:41:21;3.33;;;2.15;;
1106;SDS011;540;49.448;8.612;2023-08-30T10:43:50;2.35;;;1.80;;
1106;SDS011;540;49.448;8.612;2023-08-30T10:46:31;3.17;;;2.43;;
1106;SDS011;540;49.448;8.612;2023-08-30T10:49:09;3.10;;;2.00;;
1106;SDS011;540;49.448;8.612;2023-08-30T10:51:41;2.80;;;2.13;;
1106;SDS011;540;49.448;8.612;2023-08-30T10:54:10;2.22;;;2.00;;
1106;SDS011;540;49.448;8.612;2023-08-30T10:56:45;2.33;;;1.90;;
1106;SDS011;540;49.448;8.612;2023-08-30T10:59:17;3.47;;;1.90;;
1106;SDS011;540;49.448;8.612;2023-08-30T11:01:47;2.67;;;1.80;;
1106;SDS011;540;49.448;8.612;2023-08-30T11:04:16;4.05;;;2.15;;
1106;SDS011;540;49.448;8.612;2023-08-30T11:06:46;4.05;;;1.70;;
1106;SDS011;540;49.448;8.612;2023-08-30T11:09:14;2.13;;;1.80;;
1106;SDS011;540;49.448;8.612;2023-08-30T11:11:44;2.88;;;2.00;;
1106;SDS011;540;49.448;8.612;2023-08-30T11:14:13;1.92;;;1.58;;
1106;SDS011;540;49.448;8.612;2023-08-30T11:16:41;2.88;;;1.70;;
1106;SDS011;540;49.448;8.612;2023-08-30T11:19:09;2.22;;;1.80;;
1106;SDS011;540;49.448;8.612;2023-08-30T11:21:38;2.08;;;1.60;;
1106;SDS011;540;49.448;8.612;2023-08-30T11:24:10;2.65;;;1.92;;
1106;SDS011;540;49.448;8.612;2023-08-30T11:26:39;4.53;;;1.83;;
1106;SDS011;540;49.448;8.612;2023-08-30T11:29:07;3.00;;;1.63;;
1106;SDS011;540;49.448;8.612;2023-08-30T11:31:35;2.28;;;1.80;;
1106;SDS011;540;49.448;8.612;2023-08-30T11:34:03;2.75;;;1.52;;
1106;SDS011;540;49.448;8.612;2023-08-30T11:36:31;2.63;;;2.00;;
1106;SDS011;540;49.448;8.612;2023-08-30T11:39:02;3.63;;;1.60;;
1106;SDS011;540;49.448;8.612;2023-08-30T11:41:32;2.03;;;1.35;;
1106;SDS011;540;49.448;8.612;2023-08-30T11:44:00;1.65;;;1.35;;
1106;SDS011;540;49.448;8.612;2023-08-30T11:46:29;2.75;;;1.83;;
1106;SDS011;540;49.448;8.612;2023-08-30T11:48:58;2.15;;;1.77;;
1106;SDS011;540;49.448;8.612;2023-08-30T11:51:26;2.45;;;1.38;;
1106;SDS011;540;49.448;8.612;2023-08-30T11:53:54;2.63;;;1.52;;
1106;SDS011;540;49.448;8.612;2023-08-30T11:56:23;1.50;;;1.40;;
1106;SDS011;540;49.448;8.612;2023-08-30T11:58:53;1.63;;;1.50;;
1106;SDS011;540;49.448;8.612;2023-08-30T12:01:21;1.98;;;1.45;;
1106;SDS011;540;49.448;8.612;2023-08-30T12:03:49;2.22;;;1.58;;
1106;SDS011;540;49.448;8.612;2023-08-30T12:06:17;2.45;;;1.42;;
1106;SDS011;540;49.448;8.612;2023-08-30T12:08:45;2.33;;;1.85;;
1106;SDS011;540;49.448;8.612;2023-08-30T12:11:19;1.77;;;1.40;;
1106;SDS011;540;49.448;8.612;2023-08-30T12:13:47;3.07;;;2.10;;
1106;SDS011;540;49.448;8.612;2023-08-30T12:16:18;1.83;;;1.60;;
1106;SDS011;540;49.448;8.612;2023-08-30T12:18:47;2.72;;;1.70;;
1106;SDS011;540;49.448;8.612;2023-08-30T12:21:14;2.67;;;1.30;;
1106;SDS011;540;49.448;8.612;2023-08-30T12:23:42;4.53;;;1.20;;
1106;SDS011;540;49.448;8.612;2023-08-30T12:26:10;1.95;;;1.75;;
1106;SDS011;540;49.448;8.612;2023-08-30T12:28:38;2.25;;;1.70;;
1106;SDS011;540;49.448;8.612;2023-08-30T12:31:07;1.63;;;1.25;;
1106;SDS011;540;49.448;8.612;2023-08-30T12:33:37;3.08;;;1.27;;
1106;SDS011;540;49.448;8.612;2023-08-30T12:36:06;1.63;;;1.45;;
1106;SDS011;540;49.448;8.612;2023-08-30T12:38:34;1.50;;;1.25;;
1106;SDS011;540;49.448;8.612;2023-08-30T12:41:02;2.60;;;1.30;;
1106;SDS011;540;49.448;8.612;2023-08-30T12:43:30;2.47;;;1.45;;
1106;SDS011;540;49.448;8.612;2023-08-30T12:45:58;1.50;;;1.40;;
1106;SDS011;540;49.448;8.612;2023-08-30T12:48:26;2.90;;;1.33;;
1106;SDS011;540;49.448;8.612;2023-08-30T12:50:55;1.38;;;1.27;;
1106;SDS011;540;49.448;8.612;2023-08-30T12:53:23;3.90;;;2.13;;
1106;SDS011;540;49.448;8.612;2023-08-30T12:55:51;2.05;;;1.33;;
1106;SDS011;540;49.448;8.612;2023-08-30T12:58:19;1.73;;;1.30;;
1106;SDS011;540;49.448;8.612;2023-08-30T13:00:47;2.35;;;1.10;;
1106;SDS011;540;49.448;8.612;2023-08-30T13:03:16;3.78;;;1.20;;
1106;SDS011;540;49.448;8.612;2023-08-30T13:05:45;1.98;;;1.50;;
1106;SDS011;540;49.448;8.612;2023-08-30T13:08:15;1.83;;;1.20;;
1106;SDS011;540;49.448;8.612;2023-08-30T13:10:42;3.65;;;1.60;;
1106;SDS011;540;49.448;8.612;2023-08-30T13:13:11;2.15;;;1.58;;
1106;SDS011;540;49.448;8.612;2023-08-30T13:15:39;1.42;;;1.20;;
1106;SDS011;540;49.448;8.612;2023-08-30T13:18:07;2.10;;;1.63;;
1106;SDS011;540;49.448;8.612;2023-08-30T13:20:37;1.73;;;1.15;;
1106;SDS011;540;49.448;8.612;2023-08-30T13:23:06;1.67;;;1.27;;
1106;SDS011;540;49.448;8.612;2023-08-30T13:25:37;1.42;;;1.27;;
1106;SDS011;540;49.448;8.612;2023-08-30T13:28:05;2.17;;;1.40;;
1106;SDS011;540;49.448;8.612;2023-08-30T13:30:33;1.58;;;1.20;;
1106;SDS011;540;49.448;8.612;2023-08-30T13:33:01;2.03;;;1.20;;
1106;SDS011;540;49.448;8.612;2023-08-30T13:35:29;1.75;;;1.25;;
1106;SDS011;540;49.448;8.612;2023-08-30T13:37:57;1.33;;;1.15;;
1106;SDS011;540;49.448;8.612;2023-08-30T13:40:25;1.73;;;1.63;;
1106;SDS011;540;49.448;8.612;2023-08-30T13:42:54;2.40;;;1.40;;
1106;SDS011;540;49.448;8.612;2023-08-30T13:45:22;8.00;;;1.30;;
1106;SDS011;540;49.448;8.612;2023-08-30T13:47:50;2.72;;;1.23;;
1106;SDS011;540;49.448;8.612;2023-08-30T13:50:21;4.18;;;1.10;;
1106;SDS011;540;49.448;8.612;2023-08-30T13:52:48;1.88;;;1.33;;
1106;SDS011;540;49.448;8.612;2023-08-30T13:55:17;1.45;;;1.30;;
1106;SDS011;540;49.448;8.612;2023-08-30T13:57:45;1.67;;;1.10;;
1106;SDS011;540;49.448;8.612;2023-08-30T14:00:14;1.95;;;1.27;;
1106;SDS011;540;49.448;8.612;2023-08-30T14:02:43;1.52;;;1.13;;
1106;SDS011;540;49.448;8.612;2023-08-30T14:05:10;2.38;;;1.55;;
1106;SDS011;540;49.448;8.612;2023-08-30T14:07:38;1.48;;;1.20;;
1106;SDS011;540;49.448;8.612;2023-08-30T14:10:06;3.10;;;1.38;;
1106;SDS011;540;49.448;8.612;2023-08-30T14:12:34;2.00;;;1.30;;
1106;SDS011;540;49.448;8.612;2023-08-30T14:15:03;1.83;;;1.05;;
1106;SDS011;540;49.448;8.612;2023-08-30T14:17:32;1.60;;;1.00;;
1106;SDS011;540;49.448;8.612;2023-08-30T14:20:00;1.65;;;1.27;;
1106;SDS011;540;49.448;8.612;2023-08-30T14:22:28;1.73;;;1.17;;
1106;SDS011;540;49.448;8.612;2023-08-30T14:24:56;4.20;;;1.38;;
1106;SDS011;540;49.448;8.612;2023-08-30T14:27:37;2.05;;;1.23;;
1106;SDS011;540;49.448;8.612;2023-08-30T14:30:09;1.75;;;1.10;;
1106;SDS011;540;49.448;8.612;2023-08-30T14:32:38;1.75;;;1.20;;
1106;SDS011;540;49.448;8.612;2023-08-30T14:35:07;1.75;;;1.25;;
1106;SDS011;540;49.448;8.612;2023-08-30T14:37:35;1.75;;;1.20;;
1106;SDS011;540;49.448;8.612;2023-08-30T14:40:04;2.05;;;1.33;;
1106;SDS011;540;49.448;8.612;2023-08-30T14:42:33;4.88;;;1.40;;
1106;SDS011;540;49.448;8.612;2023-08-30T14:45:01;1.67;;;1.20;;
1106;SDS011;540;49.448;8.612;2023-08-30T14:47:32;2.30;;;1.15;;
1106;SDS011;540;49.448;8.612;2023-08-30T14:50:02;1.85;;;1.50;;
1106;SDS011;540;49.448;8.612;2023-08-30T14:52:30;2.05;;;1.77;;
1106;SDS011;540;49.448;8.612;2023-08-30T14:54:58;2.70;;;1.20;;
1106;SDS011;540;49.448;8.612;2023-08-30T14:57:26;2.08;;;1.20;;
1106;SDS011;540;49.448;8.612;2023-08-30T14:59:53;2.35;;;1.08;;
1106;SDS011;540;49.448;8.612;2023-08-30T15:02:21;2.28;;;1.55;;
1106;SDS011;540;49.448;8.612;2023-08-30T15:04:49;1.98;;;1.02;;
1106;SDS011;540;49.448;8.612;2023-08-30T15:07:18;1.60;;;1.33;;
1106;SDS011;540;49.448;8.612;2023-08-30T15:09:46;3.22;;;1.50;;
1106;SDS011;540;49.448;8.612;2023-08-30T15:12:15;1.63;;;1.30;;
1106;SDS011;540;49.448;8.612;2023-08-30T15:14:43;3.60;;;1.50;;
1106;SDS011;540;49.448;8.612;2023-08-30T15:17:11;2.03;;;1.20;;
1106;SDS011;540;49.448;8.612;2023-08-30T15:19:42;2.42;;;1.42;;
1106;SDS011;540;49.448;8.612;2023-08-30T15:22:09;2.88;;;1.20;;
1106;SDS011;540;49.448;8.612;2023-08-30T15:24:39;3.75;;;1.77;;
1106;SDS011;540;49.448;8.612;2023-08-30T15:27:07;3.00;;;1.65;;
1106;SDS011;540;49.448;8.612;2023-08-30T15:29:34;1.65;;;1.30;;
1106;SDS011;540;49.448;8.612;2023-08-30T15:32:02;3.53;;;1.38;;
1106;SDS011;540;49.448;8.612;2023-08-30T15:34:31;3.00;;;1.20;;
1106;SDS011;540;49.448;8.612;2023-08-30T15:36:58;3.20;;;1.50;;
1106;SDS011;540;49.448;8.612;2023-08-30T15:39:26;4.75;;;1.50;;
1106;SDS011;540;49.448;8.612;2023-08-30T15:41:55;2.85;;;1.83;;
1106;SDS011;540;49.448;8.612;2023-08-30T15:44:23;1.98;;;1.45;;